sensor_id;sensor_type;location;lat;lon;timestamp;temperature;humidity
6270;DHT22;3168;51.684;6.954;2023-04-03T00:01:19;1.60;1.00
6270;DHT22;3168;51.684;6.954;2023-04-03T00:03:45;1.50;1.00
6270;DHT22;3168;51.684;6.954;2023-04-03T00:06:10;1.50;1.00
6270;DHT22;3168;51.684;6.954;2023-04-03T00:08:36;1.50;1.00
6270;DHT22;3168;51.684;6.954;2023-04-03T00:11:02;1.40;1.00
6270;DHT22;3168;51.684;6.954;2023-04-03T00:13:28;1.30;1.00
6270;DHT22;3168;51.684;6.954;2023-04-03T00:15:54;1.30;1.00
6270;DHT22;3168;51.684;6.954;2023-04-03T00:18:20;1.30;1.00
6270;DHT22;3168;51.684;6.954;2023-04-03T00:20:46;1.50;1.00
6270;DHT22;3168;51.684;6.954;2023-04-03T00:23:12;1.40;1.00
6270;DHT22;3168;51.684;6.954;2023-04-03T00:25:38;1.60;1.00
6270;DHT22;3168;51.684;6.954;2023-04-03T00:28:04;1.60;1.00
6270;DHT22;3168;51.684;6.954;2023-04-03T00:30:30;1.60;1.00
6270;DHT22;3168;51.684;6.954;2023-04-03T00:32:56;1.60;1.00
6270;DHT22;3168;51.684;6.954;2023-04-03T00:35:22;1.60;1.00
6270;DHT22;3168;51.684;6.954;2023-04-03T00:37:50;1.70;1.00
6270;DHT22;3168;51.684;6.954;2023-04-03T00:40:14;1.70;1.00
6270;DHT22;3168;51.684;6.954;2023-04-03T00:42:40;1.80;1.00
6270;DHT22;3168;51.684;6.954;2023-04-03T00:45:29;1.80;1.00
6270;DHT22;3168;51.684;6.954;2023-04-03T00:47:51;1.80;1.00
6270;DHT22;3168;51.684;6.954;2023-04-03T00:50:17;1.90;1.00
6270;DHT22;3168;51.684;6.954;2023-04-03T00:52:43;2.00;1.00
6270;DHT22;3168;51.684;6.954;2023-04-03T00:55:08;2.10;1.00
6270;DHT22;3168;51.684;6.954;2023-04-03T00:57:34;2.20;1.00
6270;DHT22;3168;51.684;6.954;2023-04-03T01:00:04;2.30;1.00
6270;DHT22;3168;51.684;6.954;2023-04-03T01:02:27;2.40;1.00
6270;DHT22;3168;51.684;6.954;2023-04-03T01:04:53;2.60;1.00
6270;DHT22;3168;51.684;6.954;2023-04-03T01:07:21;2.70;1.00
6270;DHT22;3168;51.684;6.954;2023-04-03T01:09:45;2.80;1.00
6270;DHT22;3168;51.684;6.954;2023-04-03T01:12:15;2.80;1.00
6270;DHT22;3168;51.684;6.954;2023-04-03T01:14:39;2.90;1.00
6270;DHT22;3168;51.684;6.954;2023-04-03T01:17:23;2.90;1.00
6270;DHT22;3168;51.684;6.954;2023-04-03T01:19:31;3.00;1.00
6270;DHT22;3168;51.684;6.954;2023-04-03T01:24:33;3.00;1.00
6270;DHT22;3168;51.684;6.954;2023-04-03T01:26:57;3.10;1.00
6270;DHT22;3168;51.684;6.954;2023-04-03T01:29:23;3.00;1.00
6270;DHT22;3168;51.684;6.954;2023-04-03T01:31:51;3.00;1.00
6270;DHT22;3168;51.684;6.954;2023-04-03T01:34:16;3.00;1.00
6270;DHT22;3168;51.684;6.954;2023-04-03T01:36:42;3.00;1.00
6270;DHT22;3168;51.684;6.954;2023-04-03T01:39:08;3.00;1.00
6270;DHT22;3168;51.684;6.954;2023-04-03T01:41:34;3.10;1.00
6270;DHT22;3168;51.684;6.954;2023-04-03T01:44:00;3.10;1.00
6270;DHT22;3168;51.684;6.954;2023-04-03T01:46:25;3.00;1.00
6270;DHT22;3168;51.684;6.954;2023-04-03T01:48:51;3.00;1.00
6270;DHT22;3168;51.684;6.954;2023-04-03T01:51:17;3.00;1.00
6270;DHT22;3168;51.684;6.954;2023-04-03T01:53:43;3.00;1.00
6270;DHT22;3168;51.684;6.954;2023-04-03T01:56:09;2.90;1.00
6270;DHT22;3168;51.684;6.954;2023-04-03T01:58:35;2.90;1.00
6270;DHT22;3168;51.684;6.954;2023-04-03T02:01:01;3.00;1.00
6270;DHT22;3168;51.684;6.954;2023-04-03T02:03:27;3.00;1.00
6270;DHT22;3168;51.684;6.954;2023-04-03T02:05:53;3.00;1.00
6270;DHT22;3168;51.684;6.954;2023-04-03T02:08:18;3.00;1.00
6270;DHT22;3168;51.684;6.954;2023-04-03T02:10:46;2.90;1.00
6270;DHT22;3168;51.684;6.954;2023-04-03T02:13:10;2.90;1.00
6270;DHT22;3168;51.684;6.954;2023-04-03T02:15:38;3.00;1.00
6270;DHT22;3168;51.684;6.954;2023-04-03T02:18:03;2.90;1.00
6270;DHT22;3168;51.684;6.954;2023-04-03T02:20:29;2.90;1.00
6270;DHT22;3168;51.684;6.954;2023-04-03T02:22:55;2.90;1.00
6270;DHT22;3168;51.684;6.954;2023-04-03T02:25:21;2.80;1.00
6270;DHT22;3168;51.684;6.954;2023-04-03T02:27:47;2.80;1.00
6270;DHT22;3168;51.684;6.954;2023-04-03T02:30:13;2.80;1.00
6270;DHT22;3168;51.684;6.954;2023-04-03T02:32:38;2.70;1.00
6270;DHT22;3168;51.684;6.954;2023-04-03T02:35:05;2.70;1.00
6270;DHT22;3168;51.684;6.954;2023-04-03T02:37:30;2.70;1.00
6270;DHT22;3168;51.684;6.954;2023-04-03T02:39:56;2.70;1.00
6270;DHT22;3168;51.684;6.954;2023-04-03T02:42:22;2.60;1.00
6270;DHT22;3168;51.684;6.954;2023-04-03T02:44:48;2.70;1.00
6270;DHT22;3168;51.684;6.954;2023-04-03T02:47:14;2.80;1.00
6270;DHT22;3168;51.684;6.954;2023-04-03T02:49:39;2.60;1.00
6270;DHT22;3168;51.684;6.954;2023-04-03T02:52:05;2.70;1.00
6270;DHT22;3168;51.684;6.954;2023-04-03T02:54:31;2.70;1.00
6270;DHT22;3168;51.684;6.954;2023-04-03T02:56:57;2.60;1.00
6270;DHT22;3168;51.684;6.954;2023-04-03T02:59:23;2.60;1.00
6270;DHT22;3168;51.684;6.954;2023-04-03T03:01:48;2.60;1.00
6270;DHT22;3168;51.684;6.954;2023-04-03T03:04:14;2.50;1.00
6270;DHT22;3168;51.684;6.954;2023-04-03T03:06:43;2.50;1.00
6270;DHT22;3168;51.684;6.954;2023-04-03T03:09:09;2.60;1.00
6270;DHT22;3168;51.684;6.954;2023-04-03T03:11:35;2.50;1.00
6270;DHT22;3168;51.684;6.954;2023-04-03T03:14:01;2.50;1.00
6270;DHT22;3168;51.684;6.954;2023-04-03T03:16:26;2.40;1.00
6270;DHT22;3168;51.684;6.954;2023-04-03T03:18:52;2.40;1.00
6270;DHT22;3168;51.684;6.954;2023-04-03T03:21:18;2.40;1.00
6270;DHT22;3168;51.684;6.954;2023-04-03T03:23:44;2.30;1.00
6270;DHT22;3168;51.684;6.954;2023-04-03T03:26:10;2.30;1.00
6270;DHT22;3168;51.684;6.954;2023-04-03T03:28:36;2.30;1.00
6270;DHT22;3168;51.684;6.954;2023-04-03T03:31:01;2.30;1.00
6270;DHT22;3168;51.684;6.954;2023-04-03T03:33:27;2.30;1.00
6270;DHT22;3168;51.684;6.954;2023-04-03T03:35:53;2.20;1.00
6270;DHT22;3168;51.684;6.954;2023-04-03T03:38:19;2.40;1.00
6270;DHT22;3168;51.684;6.954;2023-04-03T03:40:46;2.30;1.00
6270;DHT22;3168;51.684;6.954;2023-04-03T03:43:10;2.20;1.00
6270;DHT22;3168;51.684;6.954;2023-04-03T03:45:36;2.10;1.00
6270;DHT22;3168;51.684;6.954;2023-04-03T03:48:02;2.10;1.00
6270;DHT22;3168;51.684;6.954;2023-04-03T03:50:28;2.00;1.00
6270;DHT22;3168;51.684;6.954;2023-04-03T03:52:54;2.00;1.00
6270;DHT22;3168;51.684;6.954;2023-04-03T03:55:20;2.00;1.00
6270;DHT22;3168;51.684;6.954;2023-04-03T03:57:45;2.00;1.00
6270;DHT22;3168;51.684;6.954;2023-04-03T04:00:12;1.90;1.00
6270;DHT22;3168;51.684;6.954;2023-04-03T04:02:38;1.90;1.00
6270;DHT22;3168;51.684;6.954;2023-04-03T04:05:04;1.80;1.00
6270;DHT22;3168;51.684;6.954;2023-04-03T04:07:30;1.80;1.00
6270;DHT22;3168;51.684;6.954;2023-04-03T04:09:56;1.80;1.00
6270;DHT22;3168;51.684;6.954;2023-04-03T04:12:21;1.80;1.00
6270;DHT22;3168;51.684;6.954;2023-04-03T04:14:47;1.80;1.00
6270;DHT22;3168;51.684;6.954;2023-04-03T04:17:13;1.80;1.00
6270;DHT22;3168;51.684;6.954;2023-04-03T04:19:39;1.70;1.00
6270;DHT22;3168;51.684;6.954;2023-04-03T04:22:05;1.70;1.00
6270;DHT22;3168;51.684;6.954;2023-04-03T04:24:30;1.70;1.00
6270;DHT22;3168;51.684;6.954;2023-04-03T04:26:56;1.70;1.00
6270;DHT22;3168;51.684;6.954;2023-04-03T04:29:23;1.70;1.00
6270;DHT22;3168;51.684;6.954;2023-04-03T04:31:49;1.70;1.00
6270;DHT22;3168;51.684;6.954;2023-04-03T04:34:15;1.60;1.00
6270;DHT22;3168;51.684;6.954;2023-04-03T04:36:40;1.60;1.00
6270;DHT22;3168;51.684;6.954;2023-04-03T04:39:06;1.60;1.00
6270;DHT22;3168;51.684;6.954;2023-04-03T04:41:32;1.60;1.00
6270;DHT22;3168;51.684;6.954;2023-04-03T04:43:58;1.60;1.00
6270;DHT22;3168;51.684;6.954;2023-04-03T04:46:24;1.60;1.00
6270;DHT22;3168;51.684;6.954;2023-04-03T04:48:50;1.50;1.00
6270;DHT22;3168;51.684;6.954;2023-04-03T04:51:16;1.60;1.00
6270;DHT22;3168;51.684;6.954;2023-04-03T04:53:42;1.50;1.00
6270;DHT22;3168;51.684;6.954;2023-04-03T04:56:08;1.60;1.00
6270;DHT22;3168;51.684;6.954;2023-04-03T04:58:33;1.50;1.00
6270;DHT22;3168;51.684;6.954;2023-04-03T05:01:01;1.50;1.00
6270;DHT22;3168;51.684;6.954;2023-04-03T05:03:26;1.60;1.00
6270;DHT22;3168;51.684;6.954;2023-04-03T05:05:52;1.50;1.00
6270;DHT22;3168;51.684;6.954;2023-04-03T05:08:18;1.50;1.00
6270;DHT22;3168;51.684;6.954;2023-04-03T05:10:45;1.50;1.00
6270;DHT22;3168;51.684;6.954;2023-04-03T05:13:10;1.40;1.00
6270;DHT22;3168;51.684;6.954;2023-04-03T05:15:36;1.40;1.00
6270;DHT22;3168;51.684;6.954;2023-04-03T05:18:02;1.30;1.00
6270;DHT22;3168;51.684;6.954;2023-04-03T05:20:28;1.30;1.00
6270;DHT22;3168;51.684;6.954;2023-04-03T05:22:54;1.20;1.00
6270;DHT22;3168;51.684;6.954;2023-04-03T05:25:19;1.30;1.00
6270;DHT22;3168;51.684;6.954;2023-04-03T05:27:45;1.30;1.00
6270;DHT22;3168;51.684;6.954;2023-04-03T05:30:11;1.30;1.00
6270;DHT22;3168;51.684;6.954;2023-04-03T05:32:37;1.30;1.00
6270;DHT22;3168;51.684;6.954;2023-04-03T05:35:04;1.30;1.00
6270;DHT22;3168;51.684;6.954;2023-04-03T05:37:30;1.30;1.00
6270;DHT22;3168;51.684;6.954;2023-04-03T05:39:56;1.40;1.00
6270;DHT22;3168;51.684;6.954;2023-04-03T05:42:21;1.40;1.00
6270;DHT22;3168;51.684;6.954;2023-04-03T05:44:47;1.40;1.00
6270;DHT22;3168;51.684;6.954;2023-04-03T05:47:13;1.40;1.00
6270;DHT22;3168;51.684;6.954;2023-04-03T05:49:39;1.50;1.00
6270;DHT22;3168;51.684;6.954;2023-04-03T05:52:05;1.50;1.00
6270;DHT22;3168;51.684;6.954;2023-04-03T05:54:31;1.60;1.00
6270;DHT22;3168;51.684;6.954;2023-04-03T05:56:56;1.50;1.00
6270;DHT22;3168;51.684;6.954;2023-04-03T05:59:22;1.50;1.00
6270;DHT22;3168;51.684;6.954;2023-04-03T06:01:48;1.50;1.00
6270;DHT22;3168;51.684;6.954;2023-04-03T06:04:14;1.70;1.00
6270;DHT22;3168;51.684;6.954;2023-04-03T06:06:43;1.70;1.00
6270;DHT22;3168;51.684;6.954;2023-04-03T06:09:08;1.80;1.00
6270;DHT22;3168;51.684;6.954;2023-04-03T06:11:33;1.70;1.00
6270;DHT22;3168;51.684;6.954;2023-04-03T06:13:59;1.80;1.00
6270;DHT22;3168;51.684;6.954;2023-04-03T06:16:25;1.90;1.00
6270;DHT22;3168;51.684;6.954;2023-04-03T06:18:51;2.00;1.00
6270;DHT22;3168;51.684;6.954;2023-04-03T06:21:17;1.90;1.00
6270;DHT22;3168;51.684;6.954;2023-04-03T06:23:42;1.90;1.00
6270;DHT22;3168;51.684;6.954;2023-04-03T06:26:08;1.90;1.00
6270;DHT22;3168;51.684;6.954;2023-04-03T06:28:34;2.00;1.00
6270;DHT22;3168;51.684;6.954;2023-04-03T06:31:00;2.10;1.00
6270;DHT22;3168;51.684;6.954;2023-04-03T06:33:26;2.20;1.00
6270;DHT22;3168;51.684;6.954;2023-04-03T06:35:55;2.20;1.00
6270;DHT22;3168;51.684;6.954;2023-04-03T06:38:17;2.10;1.00
6270;DHT22;3168;51.684;6.954;2023-04-03T06:40:43;2.20;1.00
6270;DHT22;3168;51.684;6.954;2023-04-03T06:43:09;2.10;1.00
6270;DHT22;3168;51.684;6.954;2023-04-03T06:45:35;2.20;1.00
6270;DHT22;3168;51.684;6.954;2023-04-03T06:48:01;2.30;1.00
6270;DHT22;3168;51.684;6.954;2023-04-03T06:50:27;2.40;1.00
6270;DHT22;3168;51.684;6.954;2023-04-03T06:52:53;2.30;1.00
6270;DHT22;3168;51.684;6.954;2023-04-03T06:55:18;2.10;1.00
6270;DHT22;3168;51.684;6.954;2023-04-03T06:57:44;2.30;1.00
6270;DHT22;3168;51.684;6.954;2023-04-03T07:00:11;2.30;1.00
6270;DHT22;3168;51.684;6.954;2023-04-03T07:02:37;2.40;1.00
6270;DHT22;3168;51.684;6.954;2023-04-03T07:05:03;2.40;1.00
6270;DHT22;3168;51.684;6.954;2023-04-03T07:07:29;2.50;1.00
6270;DHT22;3168;51.684;6.954;2023-04-03T07:09:55;2.60;1.00
6270;DHT22;3168;51.684;6.954;2023-04-03T07:12:21;2.70;1.00
6270;DHT22;3168;51.684;6.954;2023-04-03T07:14:47;2.70;1.00
6270;DHT22;3168;51.684;6.954;2023-04-03T07:17:13;2.70;1.00
6270;DHT22;3168;51.684;6.954;2023-04-03T07:19:38;2.80;1.00
6270;DHT22;3168;51.684;6.954;2023-04-03T07:22:04;2.80;1.00
6270;DHT22;3168;51.684;6.954;2023-04-03T07:24:30;3.00;1.00
6270;DHT22;3168;51.684;6.954;2023-04-03T07:26:56;2.90;1.00
6270;DHT22;3168;51.684;6.954;2023-04-03T07:29:22;2.90;1.00
6270;DHT22;3168;51.684;6.954;2023-04-03T07:31:48;3.10;1.00
6270;DHT22;3168;51.684;6.954;2023-04-03T07:34:13;3.00;1.00
6270;DHT22;3168;51.684;6.954;2023-04-03T07:36:40;3.10;1.00
6270;DHT22;3168;51.684;6.954;2023-04-03T07:39:06;3.10;1.00
6270;DHT22;3168;51.684;6.954;2023-04-03T07:41:32;3.20;1.00
6270;DHT22;3168;51.684;6.954;2023-04-03T07:43:58;3.40;1.00
6270;DHT22;3168;51.684;6.954;2023-04-03T07:46:23;3.40;1.00
6270;DHT22;3168;51.684;6.954;2023-04-03T07:48:49;3.40;1.00
6270;DHT22;3168;51.684;6.954;2023-04-03T07:51:15;3.40;1.00
6270;DHT22;3168;51.684;6.954;2023-04-03T07:53:41;3.40;1.00
6270;DHT22;3168;51.684;6.954;2023-04-03T07:56:07;3.40;1.00
6270;DHT22;3168;51.684;6.954;2023-04-03T07:58:32;3.50;1.00
6270;DHT22;3168;51.684;6.954;2023-04-03T08:00:59;3.50;1.00
6270;DHT22;3168;51.684;6.954;2023-04-03T08:03:24;3.50;1.00
6270;DHT22;3168;51.684;6.954;2023-04-03T08:05:50;3.70;1.00
6270;DHT22;3168;51.684;6.954;2023-04-03T08:08:17;3.80;1.00
6270;DHT22;3168;51.684;6.954;2023-04-03T08:10:42;3.90;1.00
6270;DHT22;3168;51.684;6.954;2023-04-03T08:13:08;3.90;1.00
6270;DHT22;3168;51.684;6.954;2023-04-03T08:15:33;3.90;1.00
6270;DHT22;3168;51.684;6.954;2023-04-03T08:17:59;3.90;1.00
6270;DHT22;3168;51.684;6.954;2023-04-03T08:20:25;4.10;1.00
6270;DHT22;3168;51.684;6.954;2023-04-03T08:22:51;4.20;1.00
6270;DHT22;3168;51.684;6.954;2023-04-03T08:25:17;4.30;1.00
6270;DHT22;3168;51.684;6.954;2023-04-03T08:27:43;4.30;1.00
6270;DHT22;3168;51.684;6.954;2023-04-03T08:30:09;4.40;1.00
6270;DHT22;3168;51.684;6.954;2023-04-03T08:32:35;4.50;1.00
6270;DHT22;3168;51.684;6.954;2023-04-03T08:35:02;4.50;1.00
6270;DHT22;3168;51.684;6.954;2023-04-03T08:37:28;4.50;1.00
6270;DHT22;3168;51.684;6.954;2023-04-03T08:39:54;4.70;1.00
6270;DHT22;3168;51.684;6.954;2023-04-03T08:42:35;4.70;1.00
6270;DHT22;3168;51.684;6.954;2023-04-03T08:47:45;4.70;1.00
6270;DHT22;3168;51.684;6.954;2023-04-03T08:50:12;4.90;1.00
6270;DHT22;3168;51.684;6.954;2023-04-03T08:52:39;4.80;1.00
6270;DHT22;3168;51.684;6.954;2023-04-03T08:55:15;5.10;1.00
6270;DHT22;3168;51.684;6.954;2023-04-03T08:57:40;5.10;1.00
6270;DHT22;3168;51.684;6.954;2023-04-03T09:00:10;5.00;1.00
6270;DHT22;3168;51.684;6.954;2023-04-03T09:02:35;5.10;1.00
6270;DHT22;3168;51.684;6.954;2023-04-03T09:05:01;5.30;1.00
6270;DHT22;3168;51.684;6.954;2023-04-03T09:07:36;5.30;1.00
6270;DHT22;3168;51.684;6.954;2023-04-03T09:10:03;5.40;1.00
6270;DHT22;3168;51.684;6.954;2023-04-03T09:12:41;5.40;1.00
6270;DHT22;3168;51.684;6.954;2023-04-03T09:15:19;5.40;1.00
6270;DHT22;3168;51.684;6.954;2023-04-03T09:18:01;5.40;1.00
6270;DHT22;3168;51.684;6.954;2023-04-03T09:23:18;5.40;1.00
6270;DHT22;3168;51.684;6.954;2023-04-03T09:25:43;5.50;1.00
6270;DHT22;3168;51.684;6.954;2023-04-03T09:28:09;5.60;1.00
6270;DHT22;3168;51.684;6.954;2023-04-03T09:30:35;5.70;1.00
6270;DHT22;3168;51.684;6.954;2023-04-03T09:33:01;5.70;1.00
6270;DHT22;3168;51.684;6.954;2023-04-03T09:35:31;5.80;1.00
6270;DHT22;3168;51.684;6.954;2023-04-03T09:38:17;5.80;1.00
6270;DHT22;3168;51.684;6.954;2023-04-03T09:40:44;5.80;1.00
6270;DHT22;3168;51.684;6.954;2023-04-03T09:43:20;5.90;1.00
6270;DHT22;3168;51.684;6.954;2023-04-03T09:45:45;5.90;1.00
6270;DHT22;3168;51.684;6.954;2023-04-03T09:48:17;6.00;1.00
6270;DHT22;3168;51.684;6.954;2023-04-03T09:50:56;6.20;1.00
6270;DHT22;3168;51.684;6.954;2023-04-03T09:53:29;6.30;1.00
6270;DHT22;3168;51.684;6.954;2023-04-03T09:55:53;6.40;1.00
6270;DHT22;3168;51.684;6.954;2023-04-03T09:58:24;6.50;1.00
6270;DHT22;3168;51.684;6.954;2023-04-03T10:00:53;6.50;1.00
6270;DHT22;3168;51.684;6.954;2023-04-03T10:03:24;6.60;1.00
6270;DHT22;3168;51.684;6.954;2023-04-03T10:05:48;6.40;1.00
6270;DHT22;3168;51.684;6.954;2023-04-03T10:08:25;6.40;1.00
6270;DHT22;3168;51.684;6.954;2023-04-03T10:11:05;6.50;1.00
6270;DHT22;3168;51.684;6.954;2023-04-03T10:13:18;6.70;1.00
6270;DHT22;3168;51.684;6.954;2023-04-03T10:15:44;6.80;1.00
6270;DHT22;3168;51.684;6.954;2023-04-03T10:18:19;6.80;1.00
6270;DHT22;3168;51.684;6.954;2023-04-03T10:20:42;6.90;1.00
6270;DHT22;3168;51.684;6.954;2023-04-03T10:23:24;6.90;1.00
6270;DHT22;3168;51.684;6.954;2023-04-03T10:26:00;7.20;1.00
6270;DHT22;3168;51.684;6.954;2023-04-03T10:28:45;7.20;1.00
6270;DHT22;3168;51.684;6.954;2023-04-03T10:31:37;7.30;1.00
6270;DHT22;3168;51.684;6.954;2023-04-03T10:34:24;7.20;1.00
6270;DHT22;3168;51.684;6.954;2023-04-03T10:37:20;7.30;1.00
6270;DHT22;3168;51.684;6.954;2023-04-03T10:39:59;7.40;1.00
6270;DHT22;3168;51.684;6.954;2023-04-03T10:42:27;7.40;1.00
6270;DHT22;3168;51.684;6.954;2023-04-03T10:45:16;7.30;1.00
6270;DHT22;3168;51.684;6.954;2023-04-03T10:47:40;7.20;1.00
6270;DHT22;3168;51.684;6.954;2023-04-03T10:50:13;7.40;1.00
6270;DHT22;3168;51.684;6.954;2023-04-03T10:52:37;7.50;1.00
6270;DHT22;3168;51.684;6.954;2023-04-03T10:55:36;7.30;1.00
6270;DHT22;3168;51.684;6.954;2023-04-03T10:57:44;7.40;1.00
6270;DHT22;3168;51.684;6.954;2023-04-03T11:00:16;7.40;1.00
6270;DHT22;3168;51.684;6.954;2023-04-03T11:02:45;7.40;1.00
6270;DHT22;3168;51.684;6.954;2023-04-03T11:05:15;7.40;1.00
6270;DHT22;3168;51.684;6.954;2023-04-03T11:07:37;7.50;1.00
6270;DHT22;3168;51.684;6.954;2023-04-03T11:10:03;7.50;1.00
6270;DHT22;3168;51.684;6.954;2023-04-03T11:12:38;7.60;1.00
6270;DHT22;3168;51.684;6.954;2023-04-03T11:15:02;7.70;1.00
6270;DHT22;3168;51.684;6.954;2023-04-03T11:17:33;7.70;1.00
6270;DHT22;3168;51.684;6.954;2023-04-03T11:20:03;7.80;1.00
6270;DHT22;3168;51.684;6.954;2023-04-03T11:22:32;7.70;1.00
6270;DHT22;3168;51.684;6.954;2023-04-03T11:25:03;7.70;1.00
6270;DHT22;3168;51.684;6.954;2023-04-03T11:27:25;7.70;1.00
6270;DHT22;3168;51.684;6.954;2023-04-03T11:29:50;7.90;1.00
6270;DHT22;3168;51.684;6.954;2023-04-03T11:32:29;7.80;1.00
6270;DHT22;3168;51.684;6.954;2023-04-03T11:34:53;7.70;1.00
6270;DHT22;3168;51.684;6.954;2023-04-03T11:37:31;7.90;1.00
6270;DHT22;3168;51.684;6.954;2023-04-03T11:39:57;8.00;1.00
6270;DHT22;3168;51.684;6.954;2023-04-03T11:42:30;7.80;1.00
6270;DHT22;3168;51.684;6.954;2023-04-03T11:44:52;8.00;1.00
6270;DHT22;3168;51.684;6.954;2023-04-03T11:50:07;8.20;1.00
6270;DHT22;3168;51.684;6.954;2023-04-03T11:52:55;8.20;1.00
6270;DHT22;3168;51.684;6.954;2023-04-03T11:55:42;8.30;1.00
6270;DHT22;3168;51.684;6.954;2023-04-03T11:58:12;8.30;1.00
6270;DHT22;3168;51.684;6.954;2023-04-03T12:00:52;8.40;1.00
6270;DHT22;3168;51.684;6.954;2023-04-03T12:03:56;8.40;1.00
6270;DHT22;3168;51.684;6.954;2023-04-03T12:06:53;8.20;1.00
6270;DHT22;3168;51.684;6.954;2023-04-03T12:08:59;8.30;1.00
6270;DHT22;3168;51.684;6.954;2023-04-03T12:11:28;8.30;1.00
6270;DHT22;3168;51.684;6.954;2023-04-03T12:14:12;8.30;1.00
6270;DHT22;3168;51.684;6.954;2023-04-03T12:16:33;8.20;1.00
6270;DHT22;3168;51.684;6.954;2023-04-03T12:18:59;8.40;1.00
6270;DHT22;3168;51.684;6.954;2023-04-03T12:24:26;8.40;1.00
6270;DHT22;3168;51.684;6.954;2023-04-03T12:29:42;8.40;1.00
6270;DHT22;3168;51.684;6.954;2023-04-03T12:33:34;8.70;1.00
6270;DHT22;3168;51.684;6.954;2023-04-03T12:35:43;8.60;1.00
6270;DHT22;3168;51.684;6.954;2023-04-03T12:38:18;8.70;1.00
6270;DHT22;3168;51.684;6.954;2023-04-03T12:40:55;8.40;1.00
6270;DHT22;3168;51.684;6.954;2023-04-03T12:43:59;8.60;1.00
6270;DHT22;3168;51.684;6.954;2023-04-03T12:46:12;8.80;1.00
6270;DHT22;3168;51.684;6.954;2023-04-03T12:48:56;8.90;1.00
6270;DHT22;3168;51.684;6.954;2023-04-03T12:51:27;9.10;1.00
6270;DHT22;3168;51.684;6.954;2023-04-03T12:53:48;9.00;1.00
6270;DHT22;3168;51.684;6.954;2023-04-03T12:56:21;9.00;1.00
6270;DHT22;3168;51.684;6.954;2023-04-03T12:58:46;8.90;1.00
6270;DHT22;3168;51.684;6.954;2023-04-03T13:01:13;8.80;1.00
6270;DHT22;3168;51.684;6.954;2023-04-03T13:03:39;8.70;1.00
6270;DHT22;3168;51.684;6.954;2023-04-03T13:06:04;8.90;1.00
6270;DHT22;3168;51.684;6.954;2023-04-03T13:08:30;9.10;1.00
6270;DHT22;3168;51.684;6.954;2023-04-03T13:11:03;9.20;1.00
6270;DHT22;3168;51.684;6.954;2023-04-03T13:13:28;9.20;1.00
6270;DHT22;3168;51.684;6.954;2023-04-03T13:15:54;9.20;1.00
6270;DHT22;3168;51.684;6.954;2023-04-03T13:18:36;9.20;1.00
6270;DHT22;3168;51.684;6.954;2023-04-03T13:21:06;9.30;1.00
6270;DHT22;3168;51.684;6.954;2023-04-03T13:23:30;9.40;1.00
6270;DHT22;3168;51.684;6.954;2023-04-03T13:25:56;9.20;1.00
6270;DHT22;3168;51.684;6.954;2023-04-03T13:28:23;9.20;1.00
6270;DHT22;3168;51.684;6.954;2023-04-03T13:31:01;9.30;1.00
6270;DHT22;3168;51.684;6.954;2023-04-03T13:33:26;9.30;1.00
6270;DHT22;3168;51.684;6.954;2023-04-03T13:35:55;9.10;1.00
6270;DHT22;3168;51.684;6.954;2023-04-03T13:38:25;9.10;1.00
6270;DHT22;3168;51.684;6.954;2023-04-03T13:40:50;9.20;1.00
6270;DHT22;3168;51.684;6.954;2023-04-03T13:43:18;9.30;1.00
6270;DHT22;3168;51.684;6.954;2023-04-03T13:45:53;9.30;1.00
6270;DHT22;3168;51.684;6.954;2023-04-03T13:48:10;9.30;1.00
6270;DHT22;3168;51.684;6.954;2023-04-03T13:50:48;9.40;1.00
6270;DHT22;3168;51.684;6.954;2023-04-03T13:53:03;9.20;1.00
6270;DHT22;3168;51.684;6.954;2023-04-03T13:55:31;9.20;1.00
6270;DHT22;3168;51.684;6.954;2023-04-03T13:58:00;9.50;1.00
6270;DHT22;3168;51.684;6.954;2023-04-03T14:00:31;9.50;1.00
6270;DHT22;3168;51.684;6.954;2023-04-03T14:02:56;9.50;1.00
6270;DHT22;3168;51.684;6.954;2023-04-03T14:05:21;9.50;1.00
6270;DHT22;3168;51.684;6.954;2023-04-03T14:07:46;9.50;1.00
6270;DHT22;3168;51.684;6.954;2023-04-03T14:10:12;9.50;1.00
6270;DHT22;3168;51.684;6.954;2023-04-03T14:12:38;9.50;1.00
6270;DHT22;3168;51.684;6.954;2023-04-03T14:15:14;9.40;1.00
6270;DHT22;3168;51.684;6.954;2023-04-03T14:17:34;9.40;1.00
6270;DHT22;3168;51.684;6.954;2023-04-03T14:20:00;9.60;1.00
6270;DHT22;3168;51.684;6.954;2023-04-03T14:22:28;9.70;1.00
6270;DHT22;3168;51.684;6.954;2023-04-03T14:24:52;9.60;1.00
6270;DHT22;3168;51.684;6.954;2023-04-03T14:27:19;9.50;1.00
6270;DHT22;3168;51.684;6.954;2023-04-03T14:29:43;9.70;1.00
6270;DHT22;3168;51.684;6.954;2023-04-03T14:32:11;9.60;1.00
6270;DHT22;3168;51.684;6.954;2023-04-03T14:34:36;9.50;1.00
6270;DHT22;3168;51.684;6.954;2023-04-03T14:37:02;9.50;1.00
6270;DHT22;3168;51.684;6.954;2023-04-03T14:39:28;9.50;1.00
6270;DHT22;3168;51.684;6.954;2023-04-03T14:41:53;9.50;1.00
6270;DHT22;3168;51.684;6.954;2023-04-03T14:44:19;10.20;1.00
6270;DHT22;3168;51.684;6.954;2023-04-03T14:46:45;10.30;1.00
6270;DHT22;3168;51.684;6.954;2023-04-03T14:49:14;10.60;1.00
6270;DHT22;3168;51.684;6.954;2023-04-03T14:51:38;11.30;1.00
6270;DHT22;3168;51.684;6.954;2023-04-03T14:54:05;10.90;1.00
6270;DHT22;3168;51.684;6.954;2023-04-03T14:56:29;10.90;1.00
6270;DHT22;3168;51.684;6.954;2023-04-03T14:58:56;10.40;1.00
6270;DHT22;3168;51.684;6.954;2023-04-03T15:01:21;10.50;1.00
6270;DHT22;3168;51.684;6.954;2023-04-03T15:03:47;10.90;1.00
6270;DHT22;3168;51.684;6.954;2023-04-03T15:06:13;10.70;1.00
6270;DHT22;3168;51.684;6.954;2023-04-03T15:08:38;10.60;1.00
6270;DHT22;3168;51.684;6.954;2023-04-03T15:11:04;10.90;1.00
6270;DHT22;3168;51.684;6.954;2023-04-03T15:13:30;11.90;1.00
6270;DHT22;3168;51.684;6.954;2023-04-03T15:15:56;11.90;1.00
6270;DHT22;3168;51.684;6.954;2023-04-03T15:18:23;11.30;1.00
6270;DHT22;3168;51.684;6.954;2023-04-03T15:20:48;10.80;1.00
6270;DHT22;3168;51.684;6.954;2023-04-03T15:23:14;11.20;1.00
6270;DHT22;3168;51.684;6.954;2023-04-03T15:25:40;11.30;1.00
6270;DHT22;3168;51.684;6.954;2023-04-03T15:28:06;11.40;1.00
6270;DHT22;3168;51.684;6.954;2023-04-03T15:30:32;11.80;1.00
6270;DHT22;3168;51.684;6.954;2023-04-03T15:32:59;11.80;1.00
6270;DHT22;3168;51.684;6.954;2023-04-03T15:35:25;10.90;1.00
6270;DHT22;3168;51.684;6.954;2023-04-03T15:37:51;11.20;1.00
6270;DHT22;3168;51.684;6.954;2023-04-03T15:40:17;10.70;1.00
6270;DHT22;3168;51.684;6.954;2023-04-03T15:42:43;10.80;1.00
6270;DHT22;3168;51.684;6.954;2023-04-03T15:45:09;10.70;1.00
6270;DHT22;3168;51.684;6.954;2023-04-03T15:47:35;10.60;1.00
6270;DHT22;3168;51.684;6.954;2023-04-03T15:50:00;10.40;1.00
6270;DHT22;3168;51.684;6.954;2023-04-03T15:52:27;10.30;1.00
6270;DHT22;3168;51.684;6.954;2023-04-03T15:54:53;10.30;1.00
6270;DHT22;3168;51.684;6.954;2023-04-03T15:57:19;10.40;1.00
6270;DHT22;3168;51.684;6.954;2023-04-03T15:59:44;10.40;1.00
6270;DHT22;3168;51.684;6.954;2023-04-03T16:02:11;10.20;1.00
6270;DHT22;3168;51.684;6.954;2023-04-03T16:04:36;10.30;1.00
6270;DHT22;3168;51.684;6.954;2023-04-03T16:07:02;10.20;1.00
6270;DHT22;3168;51.684;6.954;2023-04-03T16:09:28;10.00;1.00
6270;DHT22;3168;51.684;6.954;2023-04-03T16:11:53;9.70;1.00
6270;DHT22;3168;51.684;6.954;2023-04-03T16:14:19;9.70;1.00
6270;DHT22;3168;51.684;6.954;2023-04-03T16:16:45;9.60;1.00
6270;DHT22;3168;51.684;6.954;2023-04-03T16:19:11;9.80;1.00
6270;DHT22;3168;51.684;6.954;2023-04-03T16:21:37;9.90;1.00
6270;DHT22;3168;51.684;6.954;2023-04-03T16:24:03;9.80;1.00
6270;DHT22;3168;51.684;6.954;2023-04-03T16:26:28;9.80;1.00
6270;DHT22;3168;51.684;6.954;2023-04-03T16:28:54;9.90;1.00
6270;DHT22;3168;51.684;6.954;2023-04-03T16:31:20;10.00;1.00
6270;DHT22;3168;51.684;6.954;2023-04-03T16:33:46;9.60;1.00
6270;DHT22;3168;51.684;6.954;2023-04-03T16:36:12;9.50;1.00
6270;DHT22;3168;51.684;6.954;2023-04-03T16:38:38;9.50;1.00
6270;DHT22;3168;51.684;6.954;2023-04-03T16:41:04;9.30;1.00
6270;DHT22;3168;51.684;6.954;2023-04-03T16:43:31;9.20;1.00
6270;DHT22;3168;51.684;6.954;2023-04-03T16:45:56;9.10;1.00
6270;DHT22;3168;51.684;6.954;2023-04-03T16:48:22;9.10;1.00
6270;DHT22;3168;51.684;6.954;2023-04-03T16:50:49;9.00;1.00